Ellisburg, Pennsylvania
Current Conditions -  °F | °C
As of 4:56 AM on Monday 26 Jan 2015 (Local Time) from KELZ Reporting Station
Light Snow Light Snow  
Wind Chill: -4°   Ceiling: 3900
Heat Index:   Visibility: 8mi
Dew Point:   Wind: 9mph
Humidity: 77%   Direction: 100°E
Pressure: 29.81"   Gusts: NA
Location:  41.915°N, 77.8855°W
Report Text: KELZ 260956Z AUTO 10008KT 8SM -SN BKN039 OVC055 M13/M16 A2981 RMK AO2 SLP132 P0000 T11281161
Loading
Personal Weather Stations






























Interactive Weather Map New forecast layout! Learn more

10-Day Weather Forecast

Advertisements
Track Severe Weather on mobile